Time;durP1;ratioP1;P1;durP2;ratioP2;P2;SDS_P1;SDS_P2;PMS_P1;PMS_P2;Temp;Humidity;BMP_temperature;BMP_pressure;BME280_temperature;BME280_humidity;BME280_pressure;Samples;Min_cycle;Max_cycle;Signal;HPM_P1;HPM_P2
2022/04/19 00:01:25;;;;;;;3.15;1.90;;;;;;;;;;5049024;28;20645;-66
2022/04/19 00:03:51;;;;;;;3.70;2.00;;;;;;;;;;5049031;28;20091;-66
2022/04/19 00:06:18;;;;;;;5.55;2.83;;;;;;;;;;5048739;28;20080;-66
2022/04/19 00:08:45;;;;;;;4.47;2.38;;;;;;;;;;5048446;28;20045;-66
2022/04/19 00:11:11;;;;;;;5.55;2.42;;;;;;;;;;5048850;28;20053;-66
2022/04/19 00:13:37;;;;;;;3.33;2.20;;;;;;;;;;5048802;28;20041;-66
2022/04/19 00:16:03;;;;;;;3.17;2.00;;;;;;;;;;5048484;28;20049;-66
2022/04/19 00:18:29;;;;;;;3.65;2.33;;;;;;;;;;5048482;28;20103;-66
2022/04/19 00:20:56;;;;;;;4.43;2.45;;;;;;;;;;5048499;28;20056;-66
2022/04/19 00:23:22;;;;;;;3.70;2.28;;;;;;;;;;5048744;28;20045;-65
2022/04/19 00:25:52;;;;;;;3.80;2.08;;;;;;;;;;5048404;28;20481;-65
2022/04/19 00:28:19;;;;;;;3.38;2.00;;;;;;;;;;5048107;28;20045;-66
2022/04/19 00:30:47;;;;;;;3.38;1.75;;;;;;;;;;5048531;28;20045;-65
2022/04/19 00:33:13;;;;;;;6.72;2.65;;;;;;;;;;5048285;28;20067;-66
2022/04/19 00:35:39;;;;;;;4.30;2.40;;;;;;;;;;5048347;28;20399;-66
2022/04/19 00:38:05;;;;;;;3.40;2.20;;;;;;;;;;5048655;28;20102;-66
2022/04/19 00:40:32;;;;;;;4.32;2.17;;;;;;;;;;5048071;28;20049;-65
2022/04/19 00:42:58;;;;;;;3.55;2.45;;;;;;;;;;5048381;28;20049;-66
2022/04/19 00:45:26;;;;;;;5.72;2.50;;;;;;;;;;5048459;28;20486;-66
2022/04/19 00:47:52;;;;;;;6.13;2.20;;;;;;;;;;5047886;28;20041;-65
2022/04/19 00:50:18;;;;;;;11.63;2.63;;;;;;;;;;5048409;28;20049;-65
2022/04/19 00:52:44;;;;;;;6.10;2.20;;;;;;;;;;5048284;28;20041;-66
2022/04/19 00:55:11;;;;;;;9.73;2.30;;;;;;;;;;5047648;28;20049;-65
2022/04/19 00:57:38;;;;;;;5.40;2.20;;;;;;;;;;5047430;28;20041;-65
2022/04/19 01:00:05;;;;;;;5.43;2.33;;;;;;;;;;5047630;28;20048;-65
2022/04/19 01:02:31;;;;;;;8.65;2.20;;;;;;;;;;5046301;28;20584;-65
2022/04/19 01:04:57;;;;;;;11.65;2.30;;;;;;;;;;5047686;28;20064;-65
2022/04/19 01:07:23;;;;;;;5.57;2.80;;;;;;;;;;5047118;28;20396;-65
2022/04/19 01:09:49;;;;;;;8.35;2.58;;;;;;;;;;5047644;28;20166;-65
2022/04/19 01:15:05;;;;;;;4.72;2.38;;;;;;;;;;5047536;28;20067;-65
2022/04/19 01:17:32;;;;;;;3.78;2.17;;;;;;;;;;5047473;28;20067;-65
2022/04/19 01:20:00;;;;;;;3.75;2.30;;;;;;;;;;5046316;28;20134;-65
2022/04/19 01:22:26;;;;;;;4.82;2.45;;;;;;;;;;5046747;28;20364;-65
2022/04/19 01:24:52;;;;;;;6.75;2.75;;;;;;;;;;5046084;28;20048;-65
2022/04/19 01:27:18;;;;;;;5.55;2.10;;;;;;;;;;5047367;28;20048;-65
2022/04/19 01:29:45;;;;;;;4.45;2.55;;;;;;;;;;5047384;28;20156;-65
2022/04/19 01:32:12;;;;;;;6.18;2.92;;;;;;;;;;5046873;28;20128;-65
2022/04/19 01:34:38;;;;;;;6.63;2.45;;;;;;;;;;5047074;28;20061;-66
2022/04/19 01:37:04;;;;;;;7.15;2.40;;;;;;;;;;5046934;28;20053;-66
2022/04/19 01:42:15;;;;;;;3.60;2.30;;;;;;;;;;5048719;28;20090;-66
2022/04/19 01:44:41;;;;;;;4.03;2.40;;;;;;;;;;5051650;28;20047;-66
2022/04/19 01:47:07;;;;;;;4.60;2.25;;;;;;;;;;5051246;28;20257;-66
2022/04/19 01:49:35;;;;;;;5.65;2.30;;;;;;;;;;5051336;28;20491;-67
2022/04/19 01:52:02;;;;;;;5.47;2.42;;;;;;;;;;5051216;28;20052;-68
2022/04/19 01:54:29;;;;;;;5.35;2.60;;;;;;;;;;5050907;28;20056;-67
2022/04/19 01:56:55;;;;;;;4.50;2.72;;;;;;;;;;5050727;28;20233;-67
2022/04/19 01:59:22;;;;;;;5.85;2.47;;;;;;;;;;5050805;28;20068;-67
2022/04/19 02:01:48;;;;;;;3.88;2.40;;;;;;;;;;5050688;28;20419;-67
2022/04/19 02:04:18;;;;;;;6.63;2.38;;;;;;;;;;5050182;28;20045;-66
2022/04/19 02:06:44;;;;;;;5.70;2.80;;;;;;;;;;5050437;28;20093;-66
2022/04/19 02:09:10;;;;;;;4.05;2.22;;;;;;;;;;5050269;28;20048;-66
2022/04/19 02:11:39;;;;;;;6.60;2.60;;;;;;;;;;5050121;28;20118;-66
2022/04/19 02:14:06;;;;;;;3.53;2.13;;;;;;;;;;5049200;28;20051;-66
2022/04/19 02:16:32;;;;;;;4.25;2.33;;;;;;;;;;5050355;28;20045;-66
2022/04/19 02:18:58;;;;;;;4.50;2.30;;;;;;;;;;5050494;28;20068;-66
2022/04/19 02:21:24;;;;;;;4.30;2.47;;;;;;;;;;5048534;28;20474;-65
2022/04/19 02:23:50;;;;;;;4.28;2.08;;;;;;;;;;5050369;28;20400;-66
2022/04/19 02:26:19;;;;;;;5.72;2.50;;;;;;;;;;5050100;28;20143;-66
2022/04/19 02:28:46;;;;;;;6.00;2.60;;;;;;;;;;5050196;28;20048;-66
2022/04/19 02:31:13;;;;;;;3.85;2.45;;;;;;;;;;5049988;28;20110;-66
2022/04/19 02:33:39;;;;;;;3.92;2.13;;;;;;;;;;5049521;28;20045;-66
2022/04/19 02:36:05;;;;;;;5.00;2.88;;;;;;;;;;5049554;28;20045;-66
2022/04/19 02:38:31;;;;;;;3.28;2.00;;;;;;;;;;5049882;28;20056;-66
2022/04/19 02:40:57;;;;;;;4.35;2.28;;;;;;;;;;5049908;28;20041;-66
2022/04/19 02:43:23;;;;;;;5.75;2.97;;;;;;;;;;5048998;28;20471;-66
2022/04/19 02:45:49;;;;;;;4.22;2.70;;;;;;;;;;5050493;28;20059;-66
2022/04/19 02:48:18;;;;;;;4.10;2.75;;;;;;;;;;5050421;28;20229;-66
2022/04/19 02:50:46;;;;;;;6.25;2.50;;;;;;;;;;5050369;28;20049;-66
2022/04/19 02:53:12;;;;;;;5.70;2.53;;;;;;;;;;5049674;28;20379;-65
2022/04/19 02:55:38;;;;;;;8.13;2.78;;;;;;;;;;5050323;28;20041;-65
2022/04/19 02:58:07;;;;;;;6.05;2.92;;;;;;;;;;5049050;28;20113;-65
2022/04/19 03:00:33;;;;;;;5.57;2.53;;;;;;;;;;5050225;28;20041;-65
2022/04/19 03:02:59;;;;;;;7.45;2.55;;;;;;;;;;5050142;28;20051;-65
2022/04/19 03:05:25;;;;;;;10.70;2.85;;;;;;;;;;5049675;28;20037;-65
2022/04/19 03:07:52;;;;;;;4.20;2.33;;;;;;;;;;5049942;28;20041;-65
2022/04/19 03:10:18;;;;;;;6.65;2.33;;;;;;;;;;5049776;28;20041;-65
2022/04/19 03:12:44;;;;;;;4.80;2.47;;;;;;;;;;5049875;28;20116;-65
2022/04/19 03:15:11;;;;;;;5.63;2.78;;;;;;;;;;5049980;28;20520;-65
2022/04/19 03:17:38;;;;;;;5.40;2.38;;;;;;;;;;5050111;28;20056;-66
2022/04/19 03:20:07;;;;;;;5.30;2.47;;;;;;;;;;5049315;28;20048;-66
2022/04/19 03:28:03;;;;;;;4.22;2.47;;;;;;;;;;5049396;28;20053;-65
2022/04/19 03:30:29;;;;;;;6.38;2.50;;;;;;;;;;5049190;28;20056;-66
2022/04/19 03:32:56;;;;;;;4.28;2.58;;;;;;;;;;5049672;28;20510;-66
2022/04/19 03:35:22;;;;;;;4.68;2.40;;;;;;;;;;5048961;28;20064;-67
2022/04/19 03:37:48;;;;;;;4.28;2.30;;;;;;;;;;5049540;28;20135;-65
2022/04/19 03:40:14;;;;;;;6.13;2.17;;;;;;;;;;5048742;28;20049;-66
2022/04/19 03:42:41;;;;;;;3.60;2.45;;;;;;;;;;5049333;28;20044;-66
2022/04/19 03:45:08;;;;;;;4.20;2.08;;;;;;;;;;5049556;28;20479;-66
2022/04/19 03:47:35;;;;;;;5.07;2.00;;;;;;;;;;5048142;28;20041;-66
2022/04/19 03:50:01;;;;;;;3.15;2.08;;;;;;;;;;5049160;28;20132;-66
2022/04/19 03:52:27;;;;;;;4.55;2.30;;;;;;;;;;5049060;28;20045;-66
2022/04/19 03:54:53;;;;;;;6.88;2.40;;;;;;;;;;5048721;28;20411;-66
2022/04/19 03:57:19;;;;;;;6.55;2.40;;;;;;;;;;5049005;28;20037;-66
2022/04/19 03:59:45;;;;;;;5.63;2.35;;;;;;;;;;5048836;28;20461;-66
2022/04/19 04:02:11;;;;;;;6.95;2.70;;;;;;;;;;5049103;28;20529;-66
2022/04/19 04:04:38;;;;;;;5.45;2.58;;;;;;;;;;5048416;28;20037;-65
2022/04/19 04:07:05;;;;;;;6.32;2.60;;;;;;;;;;5048422;28;20055;-66
2022/04/19 04:09:37;;;;;;;4.57;2.28;;;;;;;;;;5047486;28;20056;-66
2022/04/19 04:12:04;;;;;;;7.32;2.83;;;;;;;;;;5048666;28;20041;-65
2022/04/19 04:14:30;;;;;;;6.53;2.55;;;;;;;;;;5047673;28;20040;-65
2022/04/19 04:16:56;;;;;;;5.07;2.72;;;;;;;;;;5048771;28;20541;-65
2022/04/19 04:19:23;;;;;;;4.38;2.20;;;;;;;;;;5048310;28;20476;-65
2022/04/19 04:21:49;;;;;;;4.32;2.22;;;;;;;;;;5048963;28;20068;-65
2022/04/19 04:24:15;;;;;;;5.30;2.72;;;;;;;;;;5048333;28;20135;-65
2022/04/19 04:26:41;;;;;;;6.50;2.70;;;;;;;;;;5048591;28;20044;-65
2022/04/19 04:29:07;;;;;;;3.88;2.38;;;;;;;;;;5048597;28;20128;-65
2022/04/19 04:31:33;;;;;;;4.97;2.40;;;;;;;;;;5048440;28;20140;-65
2022/04/19 04:33:59;;;;;;;4.57;2.50;;;;;;;;;;5048272;28;20067;-65
2022/04/19 04:36:25;;;;;;;5.57;2.38;;;;;;;;;;5048008;28;20057;-65
2022/04/19 04:38:51;;;;;;;6.07;2.53;;;;;;;;;;5048696;28;20391;-65
2022/04/19 04:41:17;;;;;;;3.60;2.47;;;;;;;;;;5048216;28;20156;-65
2022/04/19 04:43:44;;;;;;;4.40;2.20;;;;;;;;;;5048302;28;20041;-65
2022/04/19 04:51:39;;;;;;;3.80;2.28;;;;;;;;;;5048764;28;20110;-65
2022/04/19 04:54:05;;;;;;;3.97;2.30;;;;;;;;;;5047992;28;20040;-66
2022/04/19 04:56:31;;;;;;;3.67;2.13;;;;;;;;;;5048678;28;20114;-64
2022/04/19 04:58:57;;;;;;;6.00;2.53;;;;;;;;;;5048486;28;20052;-66
2022/04/19 05:01:23;;;;;;;52.30;5.60;;;;;;;;;;5048222;28;20052;-65
2022/04/19 05:03:49;;;;;;;5.13;2.63;;;;;;;;;;5048042;28;20041;-66
2022/04/19 05:06:15;;;;;;;5.28;2.78;;;;;;;;;;5047660;28;20492;-66
2022/04/19 05:08:41;;;;;;;6.95;2.30;;;;;;;;;;5048463;28;20122;-65
2022/04/19 05:11:07;;;;;;;5.25;2.00;;;;;;;;;;5046932;28;20457;-65
2022/04/19 05:13:33;;;;;;;8.00;3.15;;;;;;;;;;5048425;28;20074;-65
2022/04/19 05:16:01;;;;;;;5.82;2.55;;;;;;;;;;5046717;28;20110;-65
2022/04/19 05:18:27;;;;;;;4.88;2.15;;;;;;;;;;5050273;28;20056;-65
2022/04/19 05:20:53;;;;;;;13.15;2.70;;;;;;;;;;5053865;28;20132;-65
2022/04/19 05:23:20;;;;;;;8.70;2.70;;;;;;;;;;5051839;28;20044;-65
2022/04/19 05:25:46;;;;;;;5.00;2.25;;;;;;;;;;5051462;28;20551;-65
2022/04/19 05:28:12;;;;;;;5.43;2.60;;;;;;;;;;5051831;28;20492;-65
2022/04/19 05:30:38;;;;;;;6.25;2.50;;;;;;;;;;5069193;28;20045;-65
2022/04/19 05:33:05;;;;;;;3.85;2.53;;;;;;;;;;5071745;28;20085;-65
2022/04/19 05:35:31;;;;;;;4.97;2.55;;;;;;;;;;5071324;28;20053;-65
2022/04/19 05:37:58;;;;;;;5.40;2.40;;;;;;;;;;5071520;28;20048;-65
2022/04/19 05:40:24;;;;;;;4.43;2.40;;;;;;;;;;5071251;28;20060;-65
2022/04/19 05:42:51;;;;;;;4.78;2.40;;;;;;;;;;5071850;28;20443;-65
2022/04/19 05:45:17;;;;;;;5.70;2.35;;;;;;;;;;5071293;28;20084;-65
2022/04/19 05:47:43;;;;;;;4.25;2.50;;;;;;;;;;5071421;28;20075;-66
2022/04/19 05:50:09;;;;;;;4.63;2.50;;;;;;;;;;5071195;28;20072;-65
2022/04/19 05:52:35;;;;;;;4.07;2.33;;;;;;;;;;5071666;28;20044;-65
2022/04/19 05:55:02;;;;;;;4.18;2.58;;;;;;;;;;5071105;28;20044;-66
2022/04/19 05:57:28;;;;;;;3.72;2.38;;;;;;;;;;5069700;28;20044;-66
2022/04/19 05:59:54;;;;;;;4.18;2.15;;;;;;;;;;5071489;28;20044;-66
2022/04/19 06:05:04;;;;;;;3.63;2.10;;;;;;;;;;5071143;28;20052;-66
2022/04/19 06:07:31;;;;;;;3.78;2.10;;;;;;;;;;5071288;28;20509;-66
2022/04/19 06:09:57;;;;;;;4.35;2.17;;;;;;;;;;5070324;28;20131;-67
2022/04/19 06:12:23;;;;;;;4.68;2.22;;;;;;;;;;5071313;28;20046;-67
2022/04/19 06:14:49;;;;;;;4.07;2.28;;;;;;;;;;5071228;28;20044;-66
2022/04/19 06:17:21;;;;;;;4.45;2.40;;;;;;;;;;5070536;28;20044;-66
2022/04/19 06:19:47;;;;;;;5.60;2.22;;;;;;;;;;5070776;28;20037;-67
2022/04/19 06:22:13;;;;;;;3.53;2.20;;;;;;;;;;5071107;28;20143;-66
2022/04/19 06:24:39;;;;;;;3.80;2.22;;;;;;;;;;5071126;28;20390;-66
2022/04/19 06:27:08;;;;;;;5.72;2.42;;;;;;;;;;5070431;28;20099;-66
2022/04/19 06:29:34;;;;;;;3.93;2.57;;;;;;;;;;5070501;28;20044;-66
2022/04/19 06:32:00;;;;;;;6.80;2.75;;;;;;;;;;5070651;28;20051;-67
2022/04/19 06:34:26;;;;;;;3.75;2.30;;;;;;;;;;5070090;28;20127;-66
2022/04/19 06:36:52;;;;;;;5.00;2.30;;;;;;;;;;5070401;28;20521;-66
2022/04/19 06:39:18;;;;;;;3.03;2.03;;;;;;;;;;5069989;28;20055;-66
2022/04/19 06:41:44;;;;;;;4.72;2.40;;;;;;;;;;5070757;28;20049;-66
2022/04/19 06:44:10;;;;;;;4.63;2.17;;;;;;;;;;5070039;28;20127;-67
2022/04/19 06:46:36;;;;;;;5.75;2.25;;;;;;;;;;5070172;28;20135;-66
2022/04/19 06:49:05;;;;;;;3.67;2.20;;;;;;;;;;5070587;28;20056;-66
2022/04/19 06:51:32;;;;;;;4.40;2.00;;;;;;;;;;5069627;28;20048;-67
2022/04/19 06:53:58;;;;;;;3.65;1.92;;;;;;;;;;5070176;28;20048;-66
2022/04/19 06:56:24;;;;;;;6.70;2.17;;;;;;;;;;5070184;28;20045;-69
2022/04/19 06:58:50;;;;;;;9.65;4.10;;;;;;;;;;5068763;28;20044;-68
2022/04/19 07:01:17;;;;;;;7.38;4.45;;;;;;;;;;5070220;28;20048;-68
2022/04/19 07:03:43;;;;;;;8.30;4.05;;;;;;;;;;5069847;28;20041;-69
2022/04/19 07:06:09;;;;;;;7.43;3.97;;;;;;;;;;5051599;28;20044;-69
2022/04/19 07:08:35;;;;;;;9.90;3.53;;;;;;;;;;5070436;28;20110;-68
2022/04/19 07:11:01;;;;;;;7.68;3.65;;;;;;;;;;5069992;28;20154;-69
2022/04/19 07:13:28;;;;;;;6.53;4.10;;;;;;;;;;5070179;28;20056;-69
2022/04/19 07:15:54;;;;;;;6.60;4.00;;;;;;;;;;5069744;28;20407;-68
2022/04/19 07:18:23;;;;;;;7.22;3.83;;;;;;;;;;5069149;28;20131;-67
2022/04/19 07:26:37;;;;;;;6.47;3.65;;;;;;;;;;5051156;28;20059;-68
2022/04/19 07:29:04;;;;;;;5.22;3.30;;;;;;;;;;5053931;28;20049;-68
2022/04/19 07:31:31;;;;;;;7.13;4.15;;;;;;;;;;5053175;28;20056;-69
2022/04/19 07:33:57;;;;;;;6.43;3.55;;;;;;;;;;5064431;28;20410;-68
2022/04/19 07:36:23;;;;;;;7.40;3.72;;;;;;;;;;5053234;28;20139;-69
2022/04/19 07:38:50;;;;;;;7.57;3.72;;;;;;;;;;5059596;28;20084;-68
2022/04/19 07:41:17;;;;;;;8.02;3.80;;;;;;;;;;5059015;28;20415;-69
2022/04/19 07:43:44;;;;;;;7.20;3.67;;;;;;;;;;5053000;28;20053;-68
2022/04/19 07:46:11;;;;;;;6.72;4.30;;;;;;;;;;5057062;28;20037;-68
2022/04/19 07:48:38;;;;;;;6.68;3.42;;;;;;;;;;5064684;28;20084;-69
2022/04/19 07:51:04;;;;;;;6.60;3.38;;;;;;;;;;5054792;28;20107;-69
2022/04/19 07:53:30;;;;;;;6.60;3.30;;;;;;;;;;5040434;28;20131;-69
2022/04/19 07:55:57;;;;;;;6.43;3.33;;;;;;;;;;5055175;28;20048;-70
2022/04/19 07:58:24;;;;;;;5.93;3.17;;;;;;;;;;5058370;28;20086;-68
2022/04/19 08:00:50;;;;;;;5.28;2.78;;;;;;;;;;5056310;28;20407;-68
2022/04/19 08:03:16;;;;;;;5.05;2.70;;;;;;;;;;5057511;28;20403;-68
2022/04/19 08:05:43;;;;;;;5.45;2.50;;;;;;;;;;5038975;28;20045;-69
2022/04/19 08:08:09;;;;;;;4.75;2.58;;;;;;;;;;5055574;28;20388;-70
2022/04/19 08:10:35;;;;;;;7.00;2.92;;;;;;;;;;5053552;28;20123;-70
2022/04/19 08:13:01;;;;;;;5.65;2.50;;;;;;;;;;5056338;28;20044;-69
2022/04/19 08:15:27;;;;;;;4.90;2.80;;;;;;;;;;5052321;28;20037;-69
2022/04/19 08:17:53;;;;;;;4.63;2.40;;;;;;;;;;5054662;28;20041;-69
2022/04/19 08:20:19;;;;;;;4.15;2.20;;;;;;;;;;5058011;28;20037;-69
2022/04/19 08:22:45;;;;;;;5.45;2.17;;;;;;;;;;5053668;28;20041;-70
2022/04/19 08:25:12;;;;;;;4.72;2.40;;;;;;;;;;5054874;28;20045;-70
2022/04/19 08:27:41;;;;;;;4.63;2.55;;;;;;;;;;5053419;28;20036;-69
2022/04/19 08:30:08;;;;;;;5.18;1.90;;;;;;;;;;5049209;28;20147;-68
2022/04/19 08:32:34;;;;;;;3.42;1.85;;;;;;;;;;5050484;28;20088;-69
2022/04/19 08:35:00;;;;;;;4.32;1.95;;;;;;;;;;5055027;28;20056;-69
2022/04/19 08:37:34;;;;;;;3.50;1.63;;;;;;;;;;5057080;28;20456;-70
2022/04/19 08:40:01;;;;;;;3.17;1.80;;;;;;;;;;5055476;28;20083;-70
2022/04/19 08:42:30;;;;;;;4.18;1.50;;;;;;;;;;5053778;28;20106;-70
2022/04/19 08:44:56;;;;;;;3.03;1.33;;;;;;;;;;5053192;28;20075;-70
2022/04/19 08:47:24;;;;;;;3.80;1.33;;;;;;;;;;5053950;28;20052;-69
2022/04/19 08:49:50;;;;;;;2.13;1.00;;;;;;;;;;5056206;28;20041;-69
2022/04/19 08:52:16;;;;;;;2.58;1.15;;;;;;;;;;5056719;28;20467;-70
2022/04/19 08:57:31;;;;;;;3.05;0.85;;;;;;;;;;5061444;28;20136;-69
2022/04/19 08:59:57;;;;;;;2.65;1.05;;;;;;;;;;5060254;28;20214;-69
2022/04/19 09:02:25;;;;;;;2.30;0.98;;;;;;;;;;5055277;28;20384;-69
2022/04/19 09:04:52;;;;;;;2.08;0.90;;;;;;;;;;5059775;28;20051;-70
2022/04/19 09:07:18;;;;;;;2.15;1.00;;;;;;;;;;5058490;28;20041;-71
2022/04/19 09:09:57;;;;;;;2.58;1.20;;;;;;;;;;5057137;28;20047;-72
2022/04/19 09:12:23;;;;;;;1.53;0.93;;;;;;;;;;5058866;28;20392;-68
2022/04/19 09:14:56;;;;;;;2.70;1.30;;;;;;;;;;5060743;28;20367;-69
2022/04/19 09:17:41;;;;;;;1.85;1.05;;;;;;;;;;5058588;28;20041;-70
2022/04/19 09:20:10;;;;;;;3.17;1.15;;;;;;;;;;5062570;28;20063;-68
2022/04/19 09:22:37;;;;;;;3.10;1.45;;;;;;;;;;5053576;28;20128;-69
2022/04/19 09:25:26;;;;;;;3.88;1.65;;;;;;;;;;5059939;28;20040;-69
2022/04/19 09:27:54;;;;;;;2.65;1.42;;;;;;;;;;5043877;28;20055;-70
2022/04/19 09:30:21;;;;;;;2.72;1.55;;;;;;;;;;5060143;28;20402;-70
2022/04/19 09:33:06;;;;;;;4.10;1.42;;;;;;;;;;5058619;28;20117;-69
2022/04/19 09:35:34;;;;;;;3.15;1.30;;;;;;;;;;5064045;28;20088;-69
2022/04/19 09:38:00;;;;;;;4.00;1.27;;;;;;;;;;5051838;28;20059;-70
2022/04/19 09:40:29;;;;;;;3.53;1.77;;;;;;;;;;5053097;28;20055;-70
2022/04/19 09:42:55;;;;;;;1.92;1.08;;;;;;;;;;5052084;28;20600;-70
2022/04/19 09:45:23;;;;;;;3.88;1.23;;;;;;;;;;5056819;28;20041;-71
2022/04/19 09:47:53;;;;;;;2.05;1.33;;;;;;;;;;5071703;28;20099;-73
2022/04/19 09:50:20;;;;;;;3.17;1.92;;;;;;;;;;5069896;28;20076;-71
2022/04/19 09:52:50;;;;;;;2.25;1.33;;;;;;;;;;5051701;28;20041;-72
2022/04/19 09:55:16;;;;;;;;;;;;;;;;;;5053945;28;20041;-70
2022/04/19 09:57:46;;;;;;;4.22;1.90;;;;;;;;;;5051644;28;20302;-68
2022/04/19 10:00:14;;;;;;;3.72;1.50;;;;;;;;;;5055317;28;20072;-69
2022/04/19 10:08:20;;;;;;;2.33;1.10;;;;;;;;;;5053394;28;20037;-70
2022/04/19 10:10:50;;;;;;;2.50;1.30;;;;;;;;;;5053595;28;20044;-68
2022/04/19 10:13:17;;;;;;;;;;;;;;;;;;5060238;28;20130;-69
2022/04/19 10:15:43;;;;;;;3.45;1.75;;;;;;;;;;5070799;28;20445;-69
2022/04/19 10:18:10;;;;;;;2.15;1.40;;;;;;;;;;5054305;28;20107;-69
2022/04/19 10:20:45;;;;;;;2.80;1.13;;;;;;;;;;5051261;28;20171;-69
2022/04/19 10:23:11;;;;;;;2.92;1.58;;;;;;;;;;5053994;28;20057;-72
2022/04/19 10:25:40;;;;;;;5.32;1.90;;;;;;;;;;5052402;28;20048;-69
2022/04/19 10:28:10;;;;;;;2.65;1.65;;;;;;;;;;5059085;28;20251;-70
2022/04/19 10:30:37;;;;;;;2.30;1.40;;;;;;;;;;5055967;28;20384;-70
2022/04/19 10:33:22;;;;;;;2.63;1.33;;;;;;;;;;5059410;28;20041;-69
2022/04/19 10:36:07;;;;;;;3.63;1.42;;;;;;;;;;5053758;28;20056;-70
2022/04/19 10:38:33;;;;;;;3.85;1.52;;;;;;;;;;5064803;28;20127;-71
2022/04/19 10:40:59;;;;;;;4.00;1.25;;;;;;;;;;5055789;28;20068;-71
2022/04/19 10:43:27;;;;;;;3.95;1.10;;;;;;;;;;5051683;28;20040;-68
2022/04/19 10:45:54;;;;;;;1.75;1.30;;;;;;;;;;5057835;28;20044;-69
2022/04/19 10:48:20;;;;;;;3.38;1.33;;;;;;;;;;5055489;28;20045;-70
2022/04/19 10:50:51;;;;;;;4.10;2.05;;;;;;;;;;5054351;28;20119;-69
2022/04/19 10:53:17;;;;;;;2.45;1.33;;;;;;;;;;5051292;28;20037;-70
2022/04/19 10:56:02;;;;;;;1.95;1.33;;;;;;;;;;5063757;28;20036;-69
2022/04/19 10:58:38;;;;;;;3.08;1.35;;;;;;;;;;5055741;28;20062;-69
2022/04/19 11:01:05;;;;;;;3.33;1.48;;;;;;;;;;5057466;28;20055;-68
2022/04/19 11:03:35;;;;;;;2.15;1.25;;;;;;;;;;5052722;28;20041;-68
2022/04/19 11:06:02;;;;;;;3.33;1.40;;;;;;;;;;5052623;28;20044;-69
2022/04/19 11:08:31;;;;;;;5.72;1.60;;;;;;;;;;5050491;28;20094;-68
2022/04/19 11:10:57;;;;;;;3.25;1.30;;;;;;;;;;5052365;28;20518;-68
2022/04/19 11:13:27;;;;;;;4.18;1.30;;;;;;;;;;5054231;28;20087;-68
2022/04/19 11:16:05;;;;;;;2.70;1.15;;;;;;;;;;5053000;28;20419;-68
2022/04/19 11:18:31;;;;;;;13.88;1.58;;;;;;;;;;5053558;28;20056;-71
2022/04/19 11:20:58;;;;;;;5.70;1.00;;;;;;;;;;5065888;28;20209;-70
2022/04/19 11:23:25;;;;;;;3.25;0.90;;;;;;;;;;5052231;28;20395;-70
2022/04/19 11:25:53;;;;;;;3.40;0.85;;;;;;;;;;5052154;28;20037;-71
2022/04/19 11:28:20;;;;;;;6.03;0.98;;;;;;;;;;5054520;28;20094;-71
2022/04/19 11:30:55;;;;;;;4.97;0.73;;;;;;;;;;5053508;28;20075;-70
2022/04/19 11:33:33;;;;;;;3.40;1.00;;;;;;;;;;5051271;28;20098;-70
2022/04/19 11:36:03;;;;;;;3.63;0.73;;;;;;;;;;5054138;28;20187;-70
2022/04/19 11:38:30;;;;;;;3.53;1.00;;;;;;;;;;5057379;28;20040;-69
2022/04/19 11:46:45;;;;;;;3.30;0.82;;;;;;;;;;5051750;28;20814;-70
2022/04/19 11:49:17;;;;;;;4.30;0.90;;;;;;;;;;5054034;28;20505;-71
2022/04/19 11:51:51;;;;;;;1.20;0.70;;;;;;;;;;5050417;28;20045;-70
2022/04/19 11:54:21;;;;;;;3.03;0.90;;;;;;;;;;5056334;28;20040;-72
2022/04/19 11:56:54;;;;;;;3.28;0.80;;;;;;;;;;5050300;28;20113;-70
2022/04/19 11:59:30;;;;;;;3.95;0.80;;;;;;;;;;5063377;28;20036;-70
2022/04/19 12:01:57;;;;;;;6.78;0.80;;;;;;;;;;5053903;28;20128;-70
2022/04/19 12:04:24;;;;;;;2.33;0.90;;;;;;;;;;5053961;28;20347;-70
2022/04/19 12:06:54;;;;;;;2.72;1.10;;;;;;;;;;5052183;28;20078;-69
2022/04/19 12:09:20;;;;;;;1.67;0.70;;;;;;;;;;5052128;28;20471;-69
2022/04/19 12:11:47;;;;;;;3.10;0.90;;;;;;;;;;5055441;28;20503;-70
2022/04/19 12:14:31;;;;;;;1.10;0.70;;;;;;;;;;5054046;28;20118;-69
2022/04/19 12:17:02;;;;;;;1.13;0.70;;;;;;;;;;5053799;28;20061;-70
2022/04/19 12:19:35;;;;;;;1.60;0.82;;;;;;;;;;5052896;28;20132;-69
2022/04/19 12:22:02;;;;;;;3.05;0.70;;;;;;;;;;5053262;28;20110;-70
2022/04/19 12:24:29;;;;;;;2.85;1.10;;;;;;;;;;5053738;28;20075;-75
2022/04/19 12:27:07;;;;;;;7.60;1.88;;;;;;;;;;5054029;28;20526;-70
2022/04/19 12:29:36;;;;;;;3.42;1.23;;;;;;;;;;5054646;28;20040;-70
2022/04/19 12:32:03;;;;;;;6.63;1.40;;;;;;;;;;5051918;28;20053;-68
2022/04/19 12:34:39;;;;;;;2.55;1.00;;;;;;;;;;5053029;28;20422;-69
2022/04/19 12:37:23;;;;;;;5.43;1.08;;;;;;;;;;5064745;28;20092;-69
2022/04/19 12:40:01;;;;;;;3.22;1.20;;;;;;;;;;5061951;28;20458;-69
2022/04/19 12:42:28;;;;;;;3.05;1.10;;;;;;;;;;5054097;28;20450;-69
2022/04/19 12:45:06;;;;;;;4.80;1.42;;;;;;;;;;5050751;28;20059;-69
2022/04/19 12:47:32;;;;;;;7.38;1.10;;;;;;;;;;5060779;28;20045;-69
2022/04/19 12:49:58;;;;;;;21.67;1.73;;;;;;;;;;5053558;28;20140;-70
2022/04/19 12:52:31;;;;;;;4.35;1.42;;;;;;;;;;5050164;28;20049;-68
2022/04/19 12:55:00;;;;;;;7.15;1.60;;;;;;;;;;5060876;28;20052;-69
2022/04/19 12:57:26;;;;;;;3.80;1.48;;;;;;;;;;5052172;28;20076;-69
2022/04/19 12:59:52;;;;;;;3.22;1.00;;;;;;;;;;5052787;28;20040;-69
2022/04/19 13:02:18;;;;;;;6.43;1.40;;;;;;;;;;5052616;28;20033;-70
2022/04/19 13:04:45;;;;;;;3.10;1.10;;;;;;;;;;5052630;28;20041;-69
2022/04/19 13:12:43;;;;;;;4.05;1.23;;;;;;;;;;5050516;28;20067;-70
2022/04/19 13:15:09;;;;;;;3.50;1.05;;;;;;;;;;5061058;28;20056;-69
2022/04/19 13:17:39;;;;;;;3.83;1.35;;;;;;;;;;5051794;28;20045;-69
2022/04/19 13:20:05;;;;;;;3.03;1.17;;;;;;;;;;5051724;28;20049;-69
2022/04/19 13:22:32;;;;;;;4.47;1.20;;;;;;;;;;5052429;28;20059;-72
2022/04/19 13:24:58;;;;;;;2.92;1.20;;;;;;;;;;5049596;28;21607;-71
2022/04/19 13:27:26;;;;;;;3.97;1.27;;;;;;;;;;5053755;28;20045;-70
2022/04/19 13:29:52;;;;;;;2.75;0.93;;;;;;;;;;5051797;28;20416;-71
2022/04/19 13:32:20;;;;;;;5.85;1.23;;;;;;;;;;5049846;28;20098;-70
2022/04/19 13:34:47;;;;;;;2.47;1.20;;;;;;;;;;5051725;28;20057;-70
2022/04/19 13:37:16;;;;;;;3.00;1.20;;;;;;;;;;5052436;28;20079;-71
2022/04/19 13:39:42;;;;;;;3.47;1.33;;;;;;;;;;5053697;28;20120;-70
2022/04/19 13:42:08;;;;;;;2.63;0.98;;;;;;;;;;5058297;28;20127;-70
2022/04/19 13:44:34;;;;;;;3.83;1.65;;;;;;;;;;5055889;28;20045;-70
2022/04/19 13:47:00;;;;;;;3.35;1.10;;;;;;;;;;5055154;28;20045;-72
2022/04/19 13:49:26;;;;;;;2.97;1.08;;;;;;;;;;5055965;28;20056;-72
2022/04/19 13:51:54;;;;;;;4.93;1.40;;;;;;;;;;5056869;28;20040;-72
2022/04/19 13:54:20;;;;;;;2.25;1.05;;;;;;;;;;5057645;28;20048;-70
2022/04/19 13:56:46;;;;;;;4.07;1.20;;;;;;;;;;5066497;28;20052;-70
2022/04/19 13:59:14;;;;;;;2.28;1.00;;;;;;;;;;5059074;28;20040;-69
2022/04/19 14:01:41;;;;;;;2.20;0.90;;;;;;;;;;5067728;28;20463;-71
2022/04/19 14:04:08;;;;;;;3.55;1.13;;;;;;;;;;5060020;28;20079;-71
2022/04/19 14:06:38;;;;;;;5.35;1.02;;;;;;;;;;5057916;28;20392;-72
2022/04/19 14:09:05;;;;;;;2.50;0.88;;;;;;;;;;5058588;28;20037;-73
2022/04/19 14:11:33;;;;;;;2.90;1.20;;;;;;;;;;5051608;28;20586;-71
2022/04/19 14:13:59;;;;;;;1.25;0.60;;;;;;;;;;5049903;28;20080;-71
2022/04/19 14:16:25;;;;;;;1.40;1.00;;;;;;;;;;5066339;28;20103;-73
2022/04/19 14:18:51;;;;;;;2.47;0.93;;;;;;;;;;5052607;28;20529;-71
2022/04/19 14:21:17;;;;;;;2.85;1.15;;;;;;;;;;5059353;28;20265;-71
2022/04/19 14:23:43;;;;;;;2.88;1.05;;;;;;;;;;5069700;28;20063;-72
2022/04/19 14:26:09;;;;;;;2.50;1.00;;;;;;;;;;5066501;28;20041;-73
2022/04/19 14:34:06;;;;;;;1.35;0.88;;;;;;;;;;5053719;28;20048;-73
2022/04/19 14:36:32;;;;;;;2.78;0.95;;;;;;;;;;5052401;28;20126;-74
2022/04/19 14:38:59;;;;;;;3.03;0.90;;;;;;;;;;5061177;28;20045;-75
2022/04/19 14:41:25;;;;;;;2.28;1.00;;;;;;;;;;5067806;28;20048;-73
2022/04/19 14:43:51;;;;;;;5.10;1.40;;;;;;;;;;5068145;28;20045;-75
2022/04/19 14:46:17;;;;;;;10.25;1.38;;;;;;;;;;5068203;28;20052;-76
2022/04/19 14:48:44;;;;;;;3.72;1.17;;;;;;;;;;5044140;28;20072;-73
2022/04/19 14:56:33;;;;;;;4.20;0.93;;;;;;;;;;5346297;22;20053;-72
2022/04/19 14:59:00;;;;;;;3.97;1.20;;;;;;;;;;5016858;23;20057;-72
2022/04/19 15:01:27;;;;;;;2.17;0.95;;;;;;;;;;4993707;28;20053;-72
2022/04/19 15:03:53;;;;;;;3.97;1.05;;;;;;;;;;5023023;28;20045;-70
2022/04/19 15:06:19;;;;;;;1.75;1.00;;;;;;;;;;5029418;28;20838;-71
2022/04/19 15:08:45;;;;;;;3.10;1.30;;;;;;;;;;5029905;28;20037;-72
2022/04/19 15:11:11;;;;;;;3.83;1.08;;;;;;;;;;5029423;28;20056;-71
2022/04/19 15:13:37;;;;;;;2.35;1.08;;;;;;;;;;5026435;28;20064;-71
2022/04/19 15:16:03;;;;;;;1.95;0.85;;;;;;;;;;5027326;28;20050;-71
2022/04/19 15:18:30;;;;;;;1.60;0.70;;;;;;;;;;5028471;28;20136;-71
2022/04/19 15:20:56;;;;;;;3.05;0.90;;;;;;;;;;5010492;28;20076;-71
2022/04/19 15:23:22;;;;;;;2.22;0.90;;;;;;;;;;5029636;28;20115;-71
2022/04/19 15:25:48;;;;;;;2.00;0.93;;;;;;;;;;5028982;28;20037;-72
2022/04/19 15:28:14;;;;;;;1.83;0.90;;;;;;;;;;5028182;28;20057;-73
2022/04/19 15:30:41;;;;;;;2.95;1.00;;;;;;;;;;5028326;28;20046;-70
2022/04/19 15:33:07;;;;;;;3.78;1.30;;;;;;;;;;5029494;28;20056;-72
2022/04/19 15:35:33;;;;;;;2.03;1.10;;;;;;;;;;5027473;28;20073;-72
2022/04/19 15:37:59;;;;;;;6.13;1.58;;;;;;;;;;5024725;28;20414;-76
2022/04/19 15:40:25;;;;;;;5.90;0.90;;;;;;;;;;5024238;28;20115;-77